createdAt,value
2023-05-09T10:14:23.930Z,100862.36
2023-05-09T10:16:57.228Z,100862.47
2023-05-09T10:19:29.615Z,100865.55
2023-05-09T10:22:01.979Z,100874.52
2023-05-09T10:24:37.509Z,100856.43
2023-05-09T10:27:10.076Z,100869.03
2023-05-09T10:29:48.573Z,100856.47
2023-05-09T10:32:21.460Z,100855.27
2023-05-09T10:34:55.502Z,100854.71
2023-05-09T10:37:25.972Z,100858.74
2023-05-09T10:39:57.621Z,100853.72
2023-05-09T10:42:28.452Z,100835.73
2023-05-09T10:44:58.975Z,100840.63
2023-05-09T10:47:32.037Z,100836.02
2023-05-09T10:50:02.972Z,100801.63
2023-05-09T10:52:35.823Z,100801.63
2023-05-09T10:55:07.423Z,100814.92
2023-05-09T10:57:39.977Z,100809.96
2023-05-09T11:00:10.679Z,100812.65
2023-05-09T11:02:39.518Z,100802.96
2023-05-09T11:05:17.530Z,100805.46
2023-05-09T11:07:47.797Z,100794.56
2023-05-09T11:10:18.929Z,100794.86
2023-05-09T11:12:57.575Z,100796.55
2023-05-09T11:15:27.957Z,100785.20
2023-05-09T11:18:10.178Z,100779.16
2023-05-09T11:20:48.498Z,100774.33
2023-05-09T11:23:20.234Z,100785.05
2023-05-09T11:25:51.281Z,100773.92
2023-05-09T11:28:31.690Z,100767.36
2023-05-09T11:31:19.127Z,100759.31
2023-05-09T11:33:53.267Z,100751.33
2023-05-09T11:36:33.236Z,100757.93
2023-05-09T11:39:06.276Z,100743.64
2023-05-09T11:41:45.532Z,100745.13
2023-05-09T11:44:21.300Z,100738.92
2023-05-09T11:46:51.418Z,100740.08
2023-05-09T11:49:21.488Z,100738.81
2023-05-09T11:51:51.326Z,100733.44
2023-05-09T11:54:21.302Z,100729.70
2023-05-09T11:56:51.443Z,100720.09
2023-05-09T11:59:21.566Z,100714.32
2023-05-09T12:01:51.411Z,100719.52
2023-05-09T12:04:21.250Z,100709.77
2023-05-09T12:06:51.255Z,100709.77
2023-05-09T12:09:21.133Z,100706.80
2023-05-09T12:11:51.200Z,100701.69
2023-05-09T12:14:29.313Z,100687.91
2023-05-09T12:17:00.049Z,100687.91
2023-05-09T12:19:30.056Z,100692.23
2023-05-09T12:22:02.017Z,100692.00
2023-05-09T12:24:32.451Z,100665.89
2023-05-09T12:27:02.678Z,100665.89
2023-05-09T12:29:32.998Z,100683.31
2023-05-09T12:32:03.530Z,100680.19
2023-05-09T12:34:33.374Z,100687.56
2023-05-09T12:37:03.810Z,100679.91
2023-05-09T12:39:33.783Z,100680.04
2023-05-09T12:42:03.594Z,100672.98
2023-05-09T12:44:33.988Z,100663.05
2023-05-09T12:47:05.604Z,100664.34
2023-05-09T12:49:38.405Z,100655.35
2023-05-09T12:52:11.302Z,100657.58
2023-05-09T12:54:42.593Z,100659.34
2023-05-09T12:57:15.158Z,100655.33
2023-05-09T12:59:45.430Z,100644.08
2023-05-09T13:02:15.093Z,100627.27
2023-05-09T13:04:44.997Z,100638.13
2023-05-09T13:07:14.720Z,100631.84
2023-05-09T13:09:57.234Z,100636.85
2023-05-09T13:12:27.328Z,100619.37
2023-05-09T13:14:56.885Z,100612.45
2023-05-09T13:17:26.657Z,100619.95
2023-05-09T13:19:56.506Z,100605.20
2023-05-09T13:22:26.740Z,100609.77
2023-05-09T13:24:56.981Z,100607.98
2023-05-09T13:27:27.840Z,100612.31
2023-05-09T13:29:57.664Z,100615.64
2023-05-09T13:32:27.574Z,100611.62
2023-05-09T13:34:57.423Z,100593.44
2023-05-09T13:37:28.195Z,100580.38
2023-05-09T13:39:58.171Z,100584.75
2023-05-09T13:42:29.318Z,100584.75
2023-05-09T13:44:59.162Z,100581.84
2023-05-09T13:47:29.030Z,100582.97
2023-05-09T13:49:58.928Z,100566.39
2023-05-09T13:52:29.032Z,100540.81
2023-05-09T13:54:58.882Z,100540.81
2023-05-09T13:57:28.692Z,100562.77
2023-05-09T13:59:58.584Z,100549.72
2023-05-09T14:02:28.768Z,100560.23
2023-05-09T14:04:58.976Z,100547.56
2023-05-09T14:07:28.559Z,100556.14
2023-05-09T14:10:10.918Z,100527.22
2023-05-09T14:12:32.004Z,100527.22
2023-05-09T14:15:02.212Z,100540.11
2023-05-09T14:17:31.828Z,100529.07
2023-05-09T14:20:01.835Z,100528.95
2023-05-09T14:22:31.620Z,100526.00
2023-05-09T14:25:01.748Z,100528.49
2023-05-09T14:27:31.913Z,100519.70
2023-05-09T14:30:01.860Z,100518.59
2023-05-09T14:32:31.700Z,100515.45
2023-05-09T14:35:01.526Z,100504.69
2023-05-09T14:37:31.844Z,100530.80
2023-05-09T14:40:03.127Z,100504.34
2023-05-09T14:42:33.851Z,100515.48
2023-05-09T14:45:03.697Z,100501.60
2023-05-09T14:47:34.358Z,100502.94
2023-05-09T14:50:04.526Z,100499.86
2023-05-09T14:52:34.399Z,100505.55
2023-05-09T14:55:06.156Z,100484.53
2023-05-09T14:57:35.992Z,100497.37
2023-05-09T15:00:20.330Z,100484.50
2023-05-09T15:02:41.984Z,100484.28
2023-05-09T15:05:11.788Z,100495.03
2023-05-09T15:07:41.802Z,100495.95
2023-05-09T15:10:12.102Z,100483.38
2023-05-09T15:12:42.000Z,100481.48
2023-05-09T15:15:20.516Z,100483.29
2023-05-09T15:17:50.920Z,100476.91
2023-05-09T15:20:20.898Z,100479.73
2023-05-09T15:22:51.551Z,100481.79
2023-05-09T15:25:21.798Z,100474.87
2023-05-09T15:27:51.900Z,100479.39
2023-05-09T15:30:21.787Z,100442.27
2023-05-09T15:32:51.370Z,100442.27
2023-05-09T15:35:21.204Z,100460.70
2023-05-09T15:37:51.216Z,100457.56
2023-05-09T15:40:20.877Z,100452.35
2023-05-09T15:42:51.182Z,100463.56
2023-05-09T15:45:20.766Z,100452.93
2023-05-09T15:47:50.624Z,100445.02
2023-05-09T15:50:20.243Z,100443.91
2023-05-09T15:52:51.721Z,100443.91
2023-05-09T15:55:21.689Z,100436.97
2023-05-09T15:57:52.684Z,100440.80
2023-05-09T16:00:22.549Z,100436.13
2023-05-09T16:02:52.715Z,100432.02
2023-05-09T16:05:22.678Z,100429.26
2023-05-09T16:07:53.676Z,100433.77
2023-05-09T16:10:23.480Z,100426.13
2023-05-09T16:12:53.729Z,100424.94
2023-05-09T16:15:23.348Z,100425.78
2023-05-09T16:17:53.188Z,100422.09
2023-05-09T16:20:22.934Z,100413.77
2023-05-09T16:22:52.767Z,100410.44
2023-05-09T16:25:22.553Z,100402.30
2023-05-09T16:27:53.536Z,100400.30
2023-05-09T16:30:23.335Z,100399.86
2023-05-09T16:32:53.225Z,100396.06
2023-05-09T16:35:23.208Z,100389.16
2023-05-09T16:37:53.010Z,100390.27
2023-05-09T16:40:22.638Z,100389.05
2023-05-09T16:42:53.655Z,100384.81
2023-05-09T16:45:23.464Z,100383.73
2023-05-09T16:47:55.435Z,100382.34
2023-05-09T16:50:26.282Z,100385.08
2023-05-09T16:52:55.872Z,100379.59
2023-05-09T16:55:25.882Z,100370.95
2023-05-09T16:57:56.059Z,100372.33
2023-05-09T17:00:26.115Z,100373.55
2023-05-09T17:02:56.238Z,100365.67
2023-05-09T17:05:26.251Z,100359.89
2023-05-09T17:07:56.139Z,100353.89
2023-05-09T17:10:26.123Z,100356.42
2023-05-09T17:12:55.811Z,100352.30
2023-05-09T17:15:25.842Z,100353.16
2023-05-09T17:17:55.848Z,100350.31
2023-05-09T17:20:26.269Z,100350.13
2023-05-09T17:22:56.808Z,100339.38
2023-05-09T17:25:26.642Z,100342.98
2023-05-09T17:27:56.759Z,100339.42
2023-05-09T17:30:27.018Z,100337.54
2023-05-09T17:32:57.176Z,100337.64
2023-05-09T17:35:26.999Z,100336.72
2023-05-09T17:37:56.806Z,100332.20
2023-05-09T17:40:26.690Z,100335.77
2023-05-09T17:42:56.500Z,100334.48
2023-05-09T17:45:26.776Z,100333.91
2023-05-09T17:47:56.403Z,100343.48
2023-05-09T17:50:26.237Z,100343.60
2023-05-09T17:52:57.060Z,100336.45
2023-05-09T17:55:26.906Z,100333.92
2023-05-09T17:57:56.704Z,100337.36
2023-05-09T18:00:26.622Z,100337.93
2023-05-09T18:02:56.496Z,100339.95
2023-05-09T18:05:26.893Z,100334.27
2023-05-09T18:07:58.084Z,100327.96
2023-05-09T18:10:28.932Z,100332.91
2023-05-09T18:12:59.227Z,100324.64
2023-05-09T18:15:29.342Z,100332.02
2023-05-09T18:17:59.410Z,100335.34
2023-05-09T18:20:29.702Z,100329.72
2023-05-09T18:22:59.512Z,100334.31
2023-05-09T18:25:29.402Z,100336.34
2023-05-09T18:27:59.207Z,100336.34
2023-05-09T18:30:29.085Z,100330.07
2023-05-09T18:33:00.844Z,100337.80
2023-05-09T18:35:30.572Z,100337.80
2023-05-09T18:38:00.354Z,100339.25
2023-05-09T18:40:30.162Z,100340.23
2023-05-09T18:42:59.950Z,100344.01
2023-05-09T18:45:30.857Z,100342.00
2023-05-09T18:48:00.916Z,100349.16
2023-05-09T18:50:31.511Z,100350.53
2023-05-09T18:53:01.295Z,100346.91
2023-05-09T18:55:31.261Z,100349.78
2023-05-09T18:58:01.366Z,100340.15
2023-05-09T19:00:31.170Z,100347.11
2023-05-09T19:03:01.017Z,100348.81
2023-05-09T19:05:30.937Z,100351.99
2023-05-09T19:08:00.876Z,100349.28
2023-05-09T19:10:30.892Z,100348.52
2023-05-09T19:13:00.533Z,100344.45
2023-05-09T19:15:30.332Z,100347.11
2023-05-09T19:18:00.270Z,100347.06
2023-05-09T19:20:30.183Z,100345.09
2023-05-09T19:23:00.307Z,100348.63
2023-05-09T19:25:31.557Z,100345.34
2023-05-09T19:28:01.486Z,100347.27
2023-05-09T19:30:31.567Z,100337.28
2023-05-09T19:33:01.448Z,100337.28
2023-05-09T19:35:31.330Z,100339.09
2023-05-09T19:38:01.438Z,100340.09
2023-05-09T19:40:31.613Z,100340.09
2023-05-09T19:43:01.513Z,100335.57
2023-05-09T19:45:31.745Z,100339.68
2023-05-09T19:48:01.550Z,100338.92
2023-05-09T19:50:31.420Z,100335.02
2023-05-09T19:53:01.560Z,100339.27
2023-05-09T19:55:31.419Z,100339.75
2023-05-09T19:58:01.234Z,100334.58
2023-05-09T20:00:32.141Z,100336.63
2023-05-09T20:03:04.070Z,100338.66
2023-05-09T20:08:21.608Z,100329.67
2023-05-09T20:10:51.452Z,100332.58
2023-05-09T20:13:21.211Z,100327.02
2023-05-09T20:15:51.279Z,100333.56
2023-05-09T20:18:21.131Z,100324.22
2023-05-09T20:20:51.125Z,100324.48
2023-05-09T20:23:20.984Z,100331.83
2023-05-09T20:25:50.838Z,100326.41
2023-05-09T20:28:22.400Z,100320.70
2023-05-09T20:30:52.237Z,100326.59
2023-05-09T20:33:22.151Z,100324.22
2023-05-09T20:35:52.007Z,100322.02
2023-05-09T20:38:21.618Z,100324.61
2023-05-09T20:40:51.472Z,100318.92
2023-05-09T20:43:21.315Z,100318.92
2023-05-09T20:45:51.931Z,100320.09
2023-05-09T20:48:23.431Z,100317.84
2023-05-09T20:50:52.976Z,100318.09
2023-05-09T20:53:24.478Z,100311.02
2023-05-09T20:55:54.754Z,100316.77
2023-05-09T20:58:24.615Z,100312.95
2023-05-09T21:00:54.565Z,100308.36
2023-05-09T21:03:24.460Z,100310.98
2023-05-09T21:05:54.582Z,100302.45
2023-05-09T21:08:24.508Z,100301.93
2023-05-09T21:10:54.584Z,100298.23
2023-05-09T21:13:24.459Z,100297.75
2023-05-09T21:15:54.431Z,100298.06
2023-05-09T21:18:24.145Z,100297.15
2023-05-09T21:20:54.721Z,100295.58
2023-05-09T21:23:24.368Z,100295.58
2023-05-09T21:25:54.223Z,100293.29
2023-05-09T21:28:24.050Z,100297.75
2023-05-09T21:30:55.157Z,100290.88
2023-05-09T21:33:25.275Z,100285.59
2023-05-09T21:35:55.380Z,100287.38
2023-05-09T21:38:25.266Z,100288.72
2023-05-09T21:40:55.406Z,100285.72
2023-05-09T21:43:24.971Z,100284.13
2023-05-09T21:45:54.813Z,100284.13
2023-05-09T21:48:24.445Z,100281.35
2023-05-09T21:50:54.315Z,100280.78
2023-05-09T21:53:23.946Z,100280.63
2023-05-09T21:55:53.805Z,100275.70
2023-05-09T21:58:23.343Z,100277.89
2023-05-09T22:00:53.198Z,100275.72
2023-05-09T22:03:23.303Z,100283.44
2023-05-09T22:05:53.588Z,100282.69
2023-05-09T22:08:23.727Z,100279.77
2023-05-09T22:10:53.565Z,100278.93
2023-05-09T22:13:23.294Z,100270.89
2023-05-09T22:15:53.464Z,100271.84
2023-05-09T22:18:23.150Z,100271.13
2023-05-09T22:20:53.020Z,100274.38
2023-05-09T22:23:22.713Z,100257.23
2023-05-09T22:25:52.547Z,100261.24
2023-05-09T22:28:22.323Z,100264.57
2023-05-09T22:30:52.239Z,100267.66
2023-05-09T22:33:21.964Z,100264.69
2023-05-09T22:35:51.816Z,100261.69
2023-05-09T22:38:21.675Z,100255.19
2023-05-09T22:40:51.718Z,100255.19
2023-05-09T22:43:21.332Z,100257.08
2023-05-09T22:45:51.148Z,100250.58
2023-05-09T22:48:20.666Z,100251.22
2023-05-09T22:50:50.627Z,100252.08
2023-05-09T22:53:20.150Z,100257.13
2023-05-09T22:55:49.977Z,100255.27
2023-05-09T22:58:19.555Z,100260.34
2023-05-09T23:00:49.401Z,100257.36
2023-05-09T23:03:19.217Z,100245.56
2023-05-09T23:05:49.087Z,100251.23
2023-05-09T23:08:18.896Z,100248.83
2023-05-09T23:10:48.682Z,100248.83
2023-05-09T23:13:18.837Z,100241.58
2023-05-09T23:15:49.116Z,100239.27
2023-05-09T23:18:21.356Z,100237.34
2023-05-09T23:20:51.611Z,100228.37
2023-05-09T23:23:21.494Z,100228.37
2023-05-09T23:25:51.363Z,100224.88
2023-05-09T23:28:22.757Z,100225.81
2023-05-09T23:30:53.864Z,100233.99
2023-05-09T23:33:22.642Z,100229.06
2023-05-09T23:35:52.130Z,100226.79
2023-05-09T23:38:22.424Z,100230.55
2023-05-09T23:40:56.137Z,100226.87
2023-05-09T23:43:26.351Z,100228.52
2023-05-09T23:45:57.830Z,100219.30
2023-05-09T23:48:26.907Z,100219.30
2023-05-09T23:50:56.403Z,100221.13
2023-05-09T23:53:26.462Z,100220.22
2023-05-09T23:55:56.366Z,100211.98
2023-05-09T23:58:26.239Z,100210.51
